createdAt,value
2018-09-02T00:03:37.200Z,3.30
2018-09-02T00:08:40.698Z,2.95
2018-09-02T00:13:44.409Z,3.05
2018-09-02T00:18:48.440Z,3.22
2018-09-02T00:23:52.052Z,2.80
2018-09-02T00:28:56.162Z,2.60
2018-09-02T00:33:59.996Z,2.87
2018-09-02T00:39:03.715Z,2.90
2018-09-02T00:44:07.742Z,2.52
2018-09-02T00:49:12.595Z,2.65
2018-09-02T00:54:16.099Z,2.45
2018-09-02T00:59:19.757Z,2.70
2018-09-02T01:04:23.658Z,2.33
2018-09-02T01:09:27.497Z,3.10
2018-09-02T01:14:31.106Z,2.30
2018-09-02T01:19:34.988Z,2.25
2018-09-02T01:24:38.605Z,2.27
2018-09-02T01:29:42.580Z,2.22
2018-09-02T01:34:46.485Z,2.90
2018-09-02T01:39:50.026Z,2.87
2018-09-02T01:44:53.489Z,2.40
2018-09-02T01:49:57.085Z,2.02
2018-09-02T01:55:00.586Z,2.62
2018-09-02T02:00:04.108Z,2.45
2018-09-02T02:05:07.900Z,2.60
2018-09-02T02:10:11.800Z,2.33
2018-09-02T02:15:15.349Z,2.50
2018-09-02T02:20:18.877Z,2.37
2018-09-02T02:25:22.483Z,2.70
2018-09-02T02:30:26.051Z,2.53
2018-09-02T02:35:29.947Z,1.87
2018-09-02T02:40:33.634Z,2.10
2018-09-02T02:45:37.147Z,2.20
2018-09-02T02:50:40.751Z,2.37
2018-09-02T02:55:44.278Z,2.33
2018-09-02T03:00:47.847Z,2.37
2018-09-02T03:05:51.504Z,2.35
2018-09-02T03:10:55.322Z,2.70
2018-09-02T03:15:59.024Z,2.30
2018-09-02T03:21:02.739Z,2.37
2018-09-02T03:26:06.477Z,2.22
2018-09-02T03:31:10.173Z,2.37
2018-09-02T03:36:13.683Z,2.00
2018-09-02T03:41:17.277Z,1.87
2018-09-02T03:46:20.786Z,2.15
2018-09-02T03:51:24.209Z,1.95
2018-09-02T03:56:27.696Z,2.42
2018-09-02T04:01:31.170Z,2.60
2018-09-02T04:06:35.112Z,2.08
2018-09-02T04:11:38.795Z,2.40
2018-09-02T04:16:42.296Z,1.92
2018-09-02T04:21:45.823Z,2.15
2018-09-02T04:26:49.663Z,1.90
2018-09-02T04:31:53.310Z,2.22
2018-09-02T04:36:56.801Z,2.02
2018-09-02T04:42:00.289Z,2.30
2018-09-02T04:47:03.986Z,2.33
2018-09-02T04:52:07.793Z,2.20
2018-09-02T04:57:11.289Z,2.15
2018-09-02T05:02:15.436Z,2.67
2018-09-02T05:07:19.043Z,2.25
2018-09-02T05:12:22.738Z,1.77
2018-09-02T05:17:28.231Z,2.62
2018-09-02T05:22:31.770Z,2.30
2018-09-02T05:27:35.288Z,2.52
2018-09-02T05:32:38.961Z,2.50
2018-09-02T05:37:42.811Z,2.40
2018-09-02T05:42:46.490Z,2.67
2018-09-02T05:47:50.740Z,2.70
2018-09-02T05:52:54.189Z,2.40
2018-09-02T05:57:57.738Z,2.85
2018-09-02T06:03:01.421Z,2.60
2018-09-02T06:08:04.916Z,2.92
2018-09-02T06:13:08.623Z,2.27
2018-09-02T06:18:12.244Z,2.75
2018-09-02T06:23:15.645Z,2.17
2018-09-02T06:28:19.377Z,2.87
2018-09-02T06:33:23.056Z,2.25
2018-09-02T06:38:26.513Z,2.72
2018-09-02T06:43:29.982Z,2.60
2018-09-02T06:48:33.515Z,2.30
2018-09-02T06:53:36.937Z,2.70
2018-09-02T06:58:40.411Z,1.90
2018-09-02T07:03:43.837Z,2.30
2018-09-02T07:08:47.309Z,2.45
2018-09-02T07:13:50.745Z,2.83
2018-09-02T07:18:54.217Z,2.50
2018-09-02T07:23:57.697Z,2.37
2018-09-02T07:29:01.150Z,2.50
2018-09-02T07:34:04.759Z,2.75
2018-09-02T07:39:09.176Z,2.23
2018-09-02T07:44:12.834Z,2.50
2018-09-02T07:49:16.248Z,2.37
2018-09-02T07:54:19.915Z,1.87
2018-09-02T07:59:23.378Z,1.98
2018-09-02T08:04:26.848Z,1.87
2018-09-02T08:09:30.561Z,1.67
2018-09-02T08:14:34.324Z,2.02
2018-09-02T08:19:37.825Z,1.87
2018-09-02T08:24:41.279Z,2.05
2018-09-02T08:29:44.690Z,2.10
2018-09-02T08:34:48.227Z,1.77
2018-09-02T08:39:51.699Z,1.90
2018-09-02T08:44:55.194Z,2.20
2018-09-02T08:49:58.645Z,1.87
2018-09-02T08:55:02.433Z,2.17
2018-09-02T09:00:07.068Z,1.82
2018-09-02T09:05:10.587Z,1.62
2018-09-02T09:10:14.823Z,1.60
2018-09-02T09:15:18.335Z,1.65
2018-09-02T09:20:21.938Z,1.57
2018-09-02T09:25:26.389Z,1.93
2018-09-02T09:30:29.899Z,1.90
2018-09-02T09:35:33.411Z,1.70
2018-09-02T09:40:36.927Z,1.62
2018-09-02T09:45:40.621Z,2.05
2018-09-02T09:50:44.102Z,1.52
2018-09-02T09:55:47.580Z,2.10
2018-09-02T10:00:52.442Z,1.98
2018-09-02T10:05:55.935Z,2.20
2018-09-02T10:10:59.452Z,1.60
2018-09-02T10:16:03.099Z,2.33
2018-09-02T10:21:06.523Z,2.37
2018-09-02T10:26:10.126Z,2.30
2018-09-02T10:31:14.316Z,2.30
2018-09-02T10:36:17.826Z,2.80
2018-09-02T10:41:21.549Z,4.78
2018-09-02T10:46:25.242Z,5.95
2018-09-02T10:51:28.709Z,4.90
2018-09-02T10:56:32.170Z,4.62
2018-09-02T11:01:35.889Z,3.52
2018-09-02T11:06:39.559Z,2.93
2018-09-02T11:11:43.342Z,3.33
2018-09-02T11:16:46.869Z,3.80
2018-09-02T11:21:50.382Z,3.47
2018-09-02T11:26:53.875Z,3.27
2018-09-02T11:31:57.331Z,3.40
2018-09-02T11:37:00.771Z,3.13
2018-09-02T11:42:04.469Z,2.73
2018-09-02T11:47:07.924Z,3.00
2018-09-02T11:52:11.398Z,3.20
2018-09-02T11:57:15.082Z,3.30
2018-09-02T12:02:18.939Z,3.60
2018-09-02T12:07:22.377Z,2.77
2018-09-02T12:12:25.842Z,3.22
2018-09-02T12:17:29.463Z,3.20
2018-09-02T12:22:33.921Z,3.15
2018-09-02T12:27:37.733Z,3.30
2018-09-02T12:32:43.092Z,3.75
2018-09-02T12:37:46.909Z,3.87
2018-09-02T12:42:50.627Z,3.77
2018-09-02T12:47:54.361Z,4.60
2018-09-02T12:52:57.982Z,4.00
2018-09-02T12:58:01.465Z,4.97
2018-09-02T13:03:06.138Z,4.83
2018-09-02T13:08:09.557Z,5.35
2018-09-02T13:13:13.241Z,5.30
2018-09-02T13:18:16.945Z,5.63
2018-09-02T13:23:20.691Z,7.60
2018-09-02T13:28:24.421Z,7.23
2018-09-02T13:33:28.256Z,6.85
2018-09-02T13:38:31.711Z,6.80
2018-09-02T13:43:35.143Z,7.13
2018-09-02T13:48:38.786Z,6.42
2018-09-02T13:53:42.278Z,6.73
2018-09-02T13:58:46.051Z,6.83
2018-09-02T14:03:49.661Z,6.72
2018-09-02T14:08:53.070Z,7.37
2018-09-02T14:13:56.574Z,6.55
2018-09-02T14:19:00.333Z,6.08
2018-09-02T14:24:04.197Z,6.17
2018-09-02T14:29:07.734Z,7.07
2018-09-02T14:34:11.217Z,6.78
2018-09-02T14:39:15.358Z,5.83
2018-09-02T14:44:18.810Z,7.72
2018-09-02T14:49:22.640Z,8.73
2018-09-02T14:54:26.136Z,9.43
2018-09-02T14:59:29.680Z,11.00
2018-09-02T15:04:33.121Z,10.05
2018-09-02T15:09:36.671Z,11.50
2018-09-02T15:14:40.286Z,10.90
2018-09-02T15:19:43.799Z,10.93
2018-09-02T15:24:47.254Z,11.73
2018-09-02T15:29:50.684Z,9.95
2018-09-02T15:34:54.526Z,12.03
2018-09-02T15:39:58.089Z,11.22
2018-09-02T15:45:02.288Z,12.35
2018-09-02T15:50:06.917Z,14.58
2018-09-02T15:55:10.537Z,14.03
2018-09-02T16:00:15.354Z,13.50
2018-09-02T16:05:19.743Z,15.03
2018-09-02T16:10:23.233Z,14.63
2018-09-02T16:15:26.726Z,13.27
2018-09-02T16:20:30.242Z,11.80
2018-09-02T16:25:33.675Z,12.45
2018-09-02T16:30:37.157Z,12.53
2018-09-02T16:35:40.635Z,13.20
2018-09-02T16:40:44.117Z,14.57
2018-09-02T16:45:47.965Z,15.10
2018-09-02T16:50:51.678Z,15.30
2018-09-02T16:55:55.158Z,15.20
2018-09-02T17:00:59.226Z,14.90
2018-09-02T17:06:03.798Z,14.00
2018-09-02T17:11:08.602Z,13.40
2018-09-02T17:16:13.594Z,14.53
2018-09-02T17:21:17.353Z,13.97
2018-09-02T17:26:22.043Z,14.47
2018-09-02T17:31:27.344Z,11.95
2018-09-02T17:36:30.834Z,13.00
2018-09-02T17:41:34.329Z,12.50
2018-09-02T17:46:38.681Z,11.15
2018-09-02T17:51:44.626Z,12.23
2018-09-02T17:56:49.025Z,11.75
2018-09-02T18:01:53.780Z,9.90
2018-09-02T18:06:57.504Z,9.83
2018-09-02T18:12:02.054Z,9.70
2018-09-02T18:17:07.025Z,9.07
2018-09-02T18:22:10.515Z,10.33
2018-09-02T18:27:16.877Z,8.63
2018-09-02T18:32:20.347Z,8.98
2018-09-02T18:37:25.586Z,9.00
2018-09-02T18:42:29.586Z,8.43
2018-09-02T18:47:34.948Z,8.60
2018-09-02T18:52:38.980Z,9.50
2018-09-02T18:57:42.683Z,9.60
2018-09-02T19:02:47.586Z,7.97
2018-09-02T19:07:51.093Z,8.45
2018-09-02T19:12:55.372Z,9.30
2018-09-02T19:17:59.294Z,8.45
2018-09-02T19:23:03.118Z,8.25
2018-09-02T19:28:07.051Z,9.03
2018-09-02T19:33:12.432Z,9.60
2018-09-02T19:38:17.429Z,9.27
2018-09-02T19:43:21.132Z,9.43
2018-09-02T19:48:24.943Z,8.93
2018-09-02T19:53:28.812Z,9.30
2018-09-02T19:58:32.771Z,9.53
2018-09-02T20:03:36.242Z,9.73
2018-09-02T20:08:41.507Z,9.10
2018-09-02T20:13:45.461Z,8.77
2018-09-02T20:18:51.545Z,10.50
2018-09-02T20:23:54.396Z,10.47
2018-09-02T20:29:00.512Z,9.48
2018-09-02T20:34:05.509Z,9.47
2018-09-02T20:39:10.899Z,9.45
2018-09-02T20:44:15.550Z,9.83
2018-09-02T20:49:20.098Z,9.73
2018-09-02T20:54:24.776Z,9.90
2018-09-02T20:59:29.541Z,10.00
2018-09-02T21:04:34.853Z,9.38
2018-09-02T21:09:40.053Z,9.67
2018-09-02T21:14:43.749Z,9.23
2018-09-02T21:19:49.124Z,8.93
2018-09-02T21:24:54.938Z,8.25
2018-09-02T21:29:59.941Z,8.63
2018-09-02T21:35:06.629Z,8.27
2018-09-02T21:40:10.158Z,8.48
2018-09-02T21:45:14.931Z,8.43
2018-09-02T21:50:18.602Z,8.38
2018-09-02T21:55:22.735Z,8.17
2018-09-02T22:00:26.296Z,8.10
2018-09-02T22:05:30.790Z,7.95
2018-09-02T22:10:34.297Z,8.23
2018-09-02T22:15:39.163Z,8.08
2018-09-02T22:20:42.689Z,8.90
2018-09-02T22:25:45.371Z,8.90
2018-09-02T22:30:48.792Z,8.43
2018-09-02T22:35:52.321Z,8.80
2018-09-02T22:40:55.905Z,8.43
2018-09-02T22:45:59.405Z,7.70
2018-09-02T22:51:03.073Z,8.85
2018-09-02T22:56:06.665Z,8.40
2018-09-02T23:01:10.314Z,7.13
2018-09-02T23:06:13.821Z,6.97
2018-09-02T23:11:17.337Z,7.22
2018-09-02T23:16:20.842Z,6.77
2018-09-02T23:21:24.353Z,7.17
2018-09-02T23:26:27.919Z,6.97
2018-09-02T23:31:31.389Z,6.83
2018-09-02T23:36:35.035Z,6.45
2018-09-02T23:41:38.534Z,5.75
2018-09-02T23:46:42.042Z,6.62
2018-09-02T23:51:45.621Z,5.87
2018-09-02T23:56:49.300Z,6.90
